createdAt,value
2019-03-27T00:02:03.623Z,6.90
2019-03-27T00:04:29.715Z,6.90
2019-03-27T00:06:55.894Z,6.90
2019-03-27T00:09:22.099Z,6.90
2019-03-27T00:11:48.155Z,6.90
2019-03-27T00:14:14.211Z,6.90
2019-03-27T00:16:40.264Z,7.20
2019-03-27T00:19:06.344Z,7.00
2019-03-27T00:21:32.409Z,6.90
2019-03-27T00:23:58.455Z,6.90
2019-03-27T00:26:24.515Z,6.90
2019-03-27T00:28:50.735Z,6.90
2019-03-27T00:31:16.839Z,7.00
2019-03-27T00:33:42.983Z,6.90
2019-03-27T00:36:09.051Z,6.90
2019-03-27T00:38:35.212Z,6.90
2019-03-27T00:41:01.309Z,6.90
2019-03-27T00:43:27.359Z,6.80
2019-03-27T00:45:53.429Z,6.80
2019-03-27T00:48:20.665Z,6.80
2019-03-27T00:50:46.814Z,6.80
2019-03-27T00:53:12.998Z,6.80
2019-03-27T00:55:39.186Z,6.80
2019-03-27T00:58:05.264Z,6.80
2019-03-27T01:00:41.074Z,6.80
2019-03-27T01:03:07.146Z,6.90
2019-03-27T01:05:33.207Z,6.80
2019-03-27T01:07:59.259Z,6.80
2019-03-27T01:10:25.315Z,6.80
2019-03-27T01:12:51.418Z,6.80
2019-03-27T01:15:17.475Z,6.90
2019-03-27T01:17:43.649Z,6.90
2019-03-27T01:20:10.124Z,6.90
2019-03-27T01:22:36.187Z,6.90
2019-03-27T01:25:03.455Z,6.90
2019-03-27T01:27:29.523Z,6.90
2019-03-27T01:29:55.576Z,6.90
2019-03-27T01:32:21.639Z,6.90
2019-03-27T01:34:47.703Z,7.00
2019-03-27T01:37:13.776Z,7.00
2019-03-27T01:39:39.843Z,6.90
2019-03-27T01:42:05.903Z,6.90
2019-03-27T01:44:31.987Z,6.90
2019-03-27T01:46:58.040Z,6.90
2019-03-27T01:49:24.103Z,6.90
2019-03-27T01:51:50.171Z,6.90
2019-03-27T01:54:16.224Z,6.90
2019-03-27T01:56:42.335Z,6.90
2019-03-27T01:59:08.420Z,6.80
2019-03-27T02:01:34.471Z,6.90
2019-03-27T02:04:00.531Z,6.80
2019-03-27T02:06:26.599Z,6.80
2019-03-27T02:08:52.663Z,6.80
2019-03-27T02:11:18.711Z,6.80
2019-03-27T02:13:44.795Z,6.80
2019-03-27T02:16:10.836Z,6.80
2019-03-27T02:18:36.887Z,6.80
2019-03-27T02:21:03.038Z,6.80
2019-03-27T02:23:29.087Z,6.90
2019-03-27T02:25:55.210Z,6.80
2019-03-27T02:28:21.368Z,6.90
2019-03-27T02:30:47.463Z,6.90
2019-03-27T02:33:13.604Z,6.90
2019-03-27T02:35:39.656Z,6.90
2019-03-27T02:38:05.712Z,6.90
2019-03-27T02:40:31.865Z,6.90
2019-03-27T02:42:57.920Z,6.90
2019-03-27T02:45:23.972Z,6.90
2019-03-27T02:47:50.057Z,6.90
2019-03-27T02:50:16.103Z,6.90
2019-03-27T02:52:42.157Z,6.90
2019-03-27T02:55:08.520Z,6.90
2019-03-27T02:57:34.583Z,6.90
2019-03-27T03:00:00.676Z,6.90
2019-03-27T03:02:26.823Z,6.90
2019-03-27T03:04:52.883Z,7.00
2019-03-27T03:07:18.944Z,7.00
2019-03-27T03:09:44.990Z,7.00
2019-03-27T03:12:11.056Z,6.90
2019-03-27T03:14:37.222Z,7.00
2019-03-27T03:17:03.373Z,7.00
2019-03-27T03:19:29.525Z,7.00
2019-03-27T03:21:55.595Z,7.00
2019-03-27T03:24:21.779Z,7.00
2019-03-27T03:26:51.021Z,7.00
2019-03-27T03:29:15.835Z,7.00
2019-03-27T03:31:41.994Z,7.00
2019-03-27T03:34:08.192Z,7.00
2019-03-27T03:36:34.338Z,7.00
2019-03-27T03:39:00.488Z,7.00
2019-03-27T03:41:26.562Z,7.00
2019-03-27T03:43:52.616Z,7.00
2019-03-27T03:46:18.703Z,7.00
2019-03-27T03:48:44.840Z,7.00
2019-03-27T03:51:11.613Z,7.00
2019-03-27T03:53:37.864Z,7.00
2019-03-27T03:56:04.423Z,7.00
2019-03-27T03:58:34.404Z,6.90
2019-03-27T04:01:01.275Z,6.90
2019-03-27T04:03:28.551Z,6.90
2019-03-27T04:05:54.608Z,6.90
2019-03-27T04:08:20.735Z,6.90
2019-03-27T04:10:46.792Z,6.90
2019-03-27T04:13:12.868Z,6.90
2019-03-27T04:15:39.128Z,6.90
2019-03-27T04:18:05.321Z,6.90
2019-03-27T04:20:31.362Z,6.90
2019-03-27T04:22:57.411Z,6.90
2019-03-27T04:25:23.572Z,6.90
2019-03-27T04:27:49.632Z,6.90
2019-03-27T04:30:16.097Z,7.00
2019-03-27T04:32:42.157Z,7.00
2019-03-27T04:35:08.216Z,7.00
2019-03-27T04:37:34.259Z,7.00
2019-03-27T04:40:00.404Z,7.00
2019-03-27T04:42:26.619Z,7.00
2019-03-27T04:44:52.663Z,7.00
2019-03-27T04:47:31.486Z,7.00
2019-03-27T04:49:46.751Z,7.00
2019-03-27T04:52:12.860Z,7.00
2019-03-27T04:54:39.007Z,7.00
2019-03-27T04:57:05.067Z,7.00
2019-03-27T04:59:31.143Z,6.90
2019-03-27T05:01:57.198Z,6.90
2019-03-27T05:04:23.751Z,6.90
2019-03-27T05:06:49.804Z,6.90
2019-03-27T05:09:15.852Z,8.30
2019-03-27T05:11:41.919Z,7.00
2019-03-27T05:14:08.012Z,7.00
2019-03-27T05:16:34.075Z,7.00
2019-03-27T05:19:00.147Z,7.00
2019-03-27T05:21:26.204Z,7.00
2019-03-27T05:23:52.361Z,7.10
2019-03-27T05:26:18.426Z,7.10
2019-03-27T05:28:44.487Z,7.10
2019-03-27T05:31:10.552Z,7.10
2019-03-27T05:36:03.084Z,7.20
2019-03-27T05:38:29.144Z,7.30
2019-03-27T05:40:55.204Z,7.30
2019-03-27T05:43:21.275Z,7.40
2019-03-27T05:45:47.453Z,7.40
2019-03-27T05:48:13.538Z,7.40
2019-03-27T05:53:06.136Z,7.40
2019-03-27T05:57:58.613Z,7.40
2019-03-27T06:00:24.668Z,7.40
2019-03-27T06:02:50.732Z,7.50
2019-03-27T06:07:43.247Z,7.60
2019-03-27T06:10:09.591Z,7.60
2019-03-27T06:12:35.664Z,7.60
2019-03-27T06:17:29.375Z,7.70
2019-03-27T06:19:55.615Z,7.70
2019-03-27T06:22:21.677Z,7.80
2019-03-27T06:24:47.884Z,7.90
2019-03-27T06:29:40.556Z,8.10
2019-03-27T06:32:06.606Z,8.20
2019-03-27T06:36:59.104Z,8.40
2019-03-27T06:41:51.722Z,8.70
2019-03-27T06:44:17.768Z,8.70
2019-03-27T06:46:43.839Z,8.60
2019-03-27T06:49:09.891Z,8.50
2019-03-27T06:51:40.363Z,8.50
2019-03-27T06:54:03.916Z,8.40
2019-03-27T06:56:29.971Z,8.30
2019-03-27T07:06:15.795Z,8.40
2019-03-27T07:08:41.860Z,8.40
2019-03-27T07:11:08.025Z,8.60
2019-03-27T07:25:49.334Z,9.40
2019-03-27T07:28:15.385Z,9.40
2019-03-27T07:33:07.879Z,9.70
2019-03-27T07:35:33.951Z,9.70
2019-03-27T07:38:00.119Z,9.90
2019-03-27T07:40:26.171Z,10.00
2019-03-27T07:42:52.233Z,10.10
2019-03-27T07:45:19.215Z,10.10
2019-03-27T07:47:48.057Z,10.30
2019-03-27T07:50:13.615Z,10.30
2019-03-27T07:52:39.678Z,10.30
2019-03-27T07:55:18.661Z,10.30
2019-03-27T07:57:34.004Z,10.30
2019-03-27T08:02:26.512Z,10.30
2019-03-27T08:04:52.619Z,10.30
2019-03-27T08:07:26.602Z,10.40
2019-03-27T08:09:46.820Z,10.40
2019-03-27T08:12:12.928Z,10.50
2019-03-27T08:14:39.014Z,10.60
2019-03-27T08:19:31.636Z,10.80
2019-03-27T08:21:57.706Z,10.80
2019-03-27T08:24:23.823Z,10.70
2019-03-27T08:26:49.897Z,10.70
2019-03-27T08:29:15.983Z,10.70
2019-03-27T08:31:42.163Z,10.70
2019-03-27T08:34:08.221Z,10.70
2019-03-27T08:36:34.307Z,10.70
2019-03-27T08:39:00.478Z,10.70
2019-03-27T08:41:26.545Z,10.70
2019-03-27T08:43:52.614Z,10.90
2019-03-27T08:46:18.696Z,10.80
2019-03-27T08:48:44.872Z,10.50
2019-03-27T08:51:10.951Z,10.60
2019-03-27T08:53:37.003Z,10.70
2019-03-27T08:56:03.055Z,10.90
2019-03-27T08:58:29.122Z,11.20
2019-03-27T09:00:55.281Z,11.50
2019-03-27T09:03:21.431Z,11.70
2019-03-27T09:05:47.802Z,12.00
2019-03-27T09:08:14.276Z,12.30
2019-03-27T09:17:59.711Z,12.60
2019-03-27T09:20:25.766Z,12.40
2019-03-27T09:25:18.275Z,12.10
2019-03-27T09:27:44.325Z,12.10
2019-03-27T09:32:37.431Z,12.20
2019-03-27T09:35:03.821Z,12.30
2019-03-27T09:47:15.744Z,12.30
2019-03-27T09:49:49.397Z,12.20
2019-03-27T09:52:09.895Z,12.10
2019-03-27T09:59:28.887Z,12.20
2019-03-27T10:04:21.505Z,12.30
2019-03-27T10:06:47.604Z,12.50
2019-03-27T10:09:13.720Z,12.50
2019-03-27T10:11:39.860Z,12.60
2019-03-27T10:14:05.922Z,12.60
2019-03-27T10:21:24.855Z,12.50
2019-03-27T10:23:51.126Z,12.40
2019-03-27T10:26:17.281Z,12.20
2019-03-27T10:28:43.360Z,12.10
2019-03-27T10:31:09.424Z,12.00
2019-03-27T10:33:35.484Z,12.10
2019-03-27T10:38:28.035Z,12.30
2019-03-27T10:40:54.088Z,12.20
2019-03-27T10:43:20.243Z,12.20
2019-03-27T10:53:06.629Z,12.30
2019-03-27T10:55:34.478Z,12.10
2019-03-27T11:00:27.186Z,12.20
2019-03-27T11:02:53.262Z,12.20
2019-03-27T11:05:19.403Z,12.40
2019-03-27T11:10:12.607Z,12.50
2019-03-27T11:17:32.225Z,12.40
2019-03-27T11:19:58.288Z,12.40
2019-03-27T11:22:24.352Z,12.40
2019-03-27T11:24:50.433Z,12.40
2019-03-27T11:32:09.576Z,12.20
2019-03-27T11:44:21.556Z,11.70
2019-03-27T11:46:47.621Z,11.60
2019-03-27T11:49:13.680Z,11.50
2019-03-27T11:51:39.887Z,11.40
2019-03-27T11:58:58.860Z,11.00
2019-03-27T12:01:38.372Z,10.90
2019-03-27T12:03:52.886Z,10.80
2019-03-27T12:06:18.980Z,10.80
2019-03-27T12:08:45.027Z,10.90
2019-03-27T12:16:04.091Z,11.10
2019-03-27T12:18:32.009Z,11.00
2019-03-27T12:20:59.766Z,11.10
2019-03-27T12:25:55.259Z,11.10
2019-03-27T12:28:21.295Z,11.30
2019-03-27T12:30:47.381Z,11.40
2019-03-27T12:33:13.656Z,11.70
2019-03-27T12:35:39.707Z,11.80
2019-03-27T12:47:51.913Z,11.30
2019-03-27T12:52:44.474Z,11.10
2019-03-27T12:55:10.621Z,10.90
2019-03-27T12:57:36.679Z,10.80
2019-03-27T13:00:05.847Z,10.80
2019-03-27T13:07:24.981Z,10.60
2019-03-27T13:12:17.487Z,10.50
2019-03-27T13:17:09.972Z,10.50
2019-03-27T13:19:36.036Z,10.50
2019-03-27T13:22:02.119Z,10.30
2019-03-27T13:26:54.698Z,10.20
2019-03-27T13:29:20.764Z,10.20
2019-03-27T13:31:46.824Z,10.20
2019-03-27T13:34:12.915Z,10.20
2019-03-27T13:36:40.964Z,10.30
2019-03-27T13:41:33.595Z,10.30
2019-03-27T13:46:26.079Z,10.40
2019-03-27T13:48:52.151Z,10.40
2019-03-27T13:51:18.203Z,10.40
2019-03-27T13:56:10.687Z,10.30
2019-03-27T14:03:29.624Z,10.20
2019-03-27T14:05:55.775Z,10.30
2019-03-27T14:08:22.027Z,10.40
2019-03-27T14:10:48.271Z,10.40
2019-03-27T14:13:14.323Z,10.40
2019-03-27T14:15:40.388Z,10.40
2019-03-27T14:22:59.419Z,10.20
2019-03-27T14:25:25.490Z,10.10
2019-03-27T14:27:51.543Z,10.10
2019-03-27T14:30:53.220Z,10.10
2019-03-27T14:35:45.699Z,10.10
2019-03-27T14:38:11.750Z,10.20
2019-03-27T14:40:37.811Z,10.10
2019-03-27T14:43:03.976Z,10.30
2019-03-27T14:47:56.579Z,10.20
2019-03-27T14:50:22.660Z,10.20
2019-03-27T14:52:48.819Z,10.10
2019-03-27T14:55:14.871Z,10.20
2019-03-27T14:57:40.935Z,10.20
2019-03-27T15:00:09.031Z,10.20
2019-03-27T15:02:35.207Z,10.20
2019-03-27T15:05:01.287Z,10.20
2019-03-27T15:09:53.884Z,10.10
2019-03-27T15:12:19.933Z,10.10
2019-03-27T15:19:38.899Z,9.80
2019-03-27T15:22:05.000Z,9.70
2019-03-27T15:26:57.500Z,9.70
2019-03-27T15:36:42.999Z,9.70
2019-03-27T15:39:09.164Z,9.70
2019-03-27T15:41:35.236Z,9.70
2019-03-27T15:44:01.293Z,9.70
2019-03-27T15:48:53.966Z,9.70
2019-03-27T15:51:20.154Z,9.60
2019-03-27T15:53:47.399Z,9.60
2019-03-27T15:58:40.429Z,9.60
2019-03-27T16:01:06.806Z,9.50
2019-03-27T16:05:59.701Z,9.60
2019-03-27T16:08:25.909Z,9.60
2019-03-27T16:18:11.496Z,9.50
2019-03-27T16:20:37.547Z,9.50
2019-03-27T16:23:03.760Z,9.40
2019-03-27T16:27:56.302Z,9.50
2019-03-27T16:30:22.355Z,9.40
2019-03-27T16:32:48.435Z,9.40
2019-03-27T16:37:41.003Z,9.40
2019-03-27T16:40:07.563Z,9.50
2019-03-27T16:45:00.093Z,9.40
2019-03-27T16:47:26.371Z,9.40
2019-03-27T16:49:52.519Z,9.30
2019-03-27T16:57:11.670Z,9.30
2019-03-27T16:59:37.728Z,9.30
2019-03-27T17:02:04.403Z,9.20
2019-03-27T17:09:23.337Z,9.40
2019-03-27T17:11:49.382Z,9.30
2019-03-27T17:14:15.452Z,9.40
2019-03-27T17:16:41.515Z,9.30
2019-03-27T17:21:34.060Z,9.20
2019-03-27T17:26:26.576Z,9.20
2019-03-27T17:28:52.631Z,9.20
2019-03-27T17:33:45.172Z,9.20
2019-03-27T17:36:11.219Z,9.20
2019-03-27T17:38:37.276Z,9.30
2019-03-27T17:41:03.338Z,9.30
2019-03-27T17:45:55.847Z,9.20
2019-03-27T17:48:22.011Z,9.20
2019-03-27T17:53:14.515Z,9.10
2019-03-27T17:58:06.991Z,9.10
2019-03-27T18:03:06.939Z,9.10
2019-03-27T18:05:32.997Z,9.00
2019-03-27T18:07:59.075Z,9.10
2019-03-27T18:10:25.132Z,9.20
2019-03-27T18:12:51.191Z,9.20
2019-03-27T18:15:17.246Z,9.10
2019-03-27T18:17:43.304Z,9.10
2019-03-27T18:20:09.758Z,9.10
2019-03-27T18:22:35.841Z,9.10
2019-03-27T18:25:04.103Z,9.10
2019-03-27T18:27:30.183Z,9.10
2019-03-27T18:29:56.340Z,9.00
2019-03-27T18:32:22.419Z,9.10
2019-03-27T18:39:41.387Z,9.10
2019-03-27T18:47:00.406Z,9.10
2019-03-27T18:49:26.559Z,9.10
2019-03-27T18:51:52.607Z,9.10
2019-03-27T18:54:18.688Z,9.10
2019-03-27T18:56:44.767Z,9.10
2019-03-27T18:59:10.844Z,9.00
2019-03-27T19:16:15.675Z,9.00
2019-03-27T19:18:41.824Z,9.00
2019-03-27T19:21:07.912Z,8.90
2019-03-27T19:23:34.047Z,8.90
2019-03-27T19:28:26.664Z,8.90
2019-03-27T19:30:52.863Z,8.80
2019-03-27T19:33:18.947Z,8.80
2019-03-27T19:38:11.543Z,8.90
2019-03-27T19:43:04.063Z,8.80
2019-03-27T19:50:23.207Z,8.80
2019-03-27T19:57:42.151Z,8.80
2019-03-27T20:00:09.794Z,8.70
2019-03-27T20:07:35.977Z,8.70
2019-03-27T20:09:57.811Z,8.70
2019-03-27T20:12:23.883Z,8.70
2019-03-27T20:19:42.972Z,8.60
2019-03-27T20:24:40.860Z,8.60
2019-03-27T20:29:30.067Z,8.50
2019-03-27T20:31:56.120Z,8.50
2019-03-27T20:41:41.631Z,8.60
2019-03-27T20:44:07.695Z,8.60
2019-03-27T20:46:33.803Z,8.50
2019-03-27T20:51:26.314Z,8.50
2019-03-27T20:53:52.607Z,8.50
2019-03-27T20:56:18.663Z,8.60
2019-03-27T20:58:44.767Z,8.60
2019-03-27T21:01:10.935Z,8.30
2019-03-27T21:20:42.142Z,8.50
2019-03-27T21:23:08.200Z,8.50
2019-03-27T21:25:34.252Z,8.50
2019-03-27T21:28:00.322Z,8.40
2019-03-27T21:30:26.512Z,8.40
2019-03-27T21:32:52.692Z,8.40
2019-03-27T21:35:18.760Z,8.40
2019-03-27T21:37:44.948Z,8.40
2019-03-27T21:40:11.715Z,8.40
2019-03-27T21:42:37.891Z,8.50
2019-03-27T21:45:08.444Z,8.50
2019-03-27T21:50:06.124Z,8.40
2019-03-27T21:52:32.360Z,8.40
2019-03-27T21:54:58.537Z,8.40
2019-03-27T21:57:24.625Z,8.40
2019-03-27T21:59:50.881Z,8.40
2019-03-27T22:02:17.124Z,8.40
2019-03-27T22:04:43.179Z,8.40
2019-03-27T22:07:09.270Z,8.40
2019-03-27T22:09:35.378Z,8.50
2019-03-27T22:12:01.494Z,8.50
2019-03-27T22:16:54.126Z,8.50
2019-03-27T22:19:20.212Z,8.40
2019-03-27T22:21:46.407Z,8.40
2019-03-27T22:24:12.612Z,8.40
2019-03-27T22:26:38.903Z,8.40
2019-03-27T22:29:04.989Z,8.40
2019-03-27T22:31:31.058Z,8.40
2019-03-27T22:33:57.147Z,8.40
2019-03-27T22:36:23.339Z,8.40
2019-03-27T22:38:49.424Z,8.50
2019-03-27T22:41:15.571Z,8.50
2019-03-27T22:43:41.660Z,8.50
2019-03-27T22:46:07.823Z,8.50
2019-03-27T22:48:34.095Z,8.40
2019-03-27T22:51:00.231Z,8.40
2019-03-27T22:55:52.872Z,8.40
2019-03-27T22:58:18.935Z,8.40
2019-03-27T23:03:18.637Z,8.40
2019-03-27T23:10:35.335Z,8.50
2019-03-27T23:13:01.501Z,8.50
2019-03-27T23:17:54.002Z,8.50
2019-03-27T23:20:20.202Z,8.50
2019-03-27T23:22:46.403Z,8.40
2019-03-27T23:25:12.769Z,8.40
2019-03-27T23:27:38.826Z,8.40
2019-03-27T23:30:07.079Z,8.40
2019-03-27T23:32:33.137Z,8.40
2019-03-27T23:39:52.235Z,8.40
2019-03-27T23:42:18.384Z,8.40
2019-03-27T23:44:44.478Z,8.40
2019-03-27T23:47:10.528Z,8.40
2019-03-27T23:49:36.613Z,8.40
2019-03-27T23:52:02.920Z,8.40
2019-03-27T23:54:29.168Z,8.40
2019-03-27T23:56:55.235Z,8.40
2019-03-27T23:59:21.283Z,8.40
